createdAt,value
2023-05-08T00:01:11.806Z,-0.50
2023-05-08T00:03:39.282Z,-0.60
2023-05-08T00:06:07.108Z,-0.60
2023-05-08T00:08:34.340Z,-0.60
2023-05-08T00:11:01.687Z,-0.60
2023-05-08T00:13:28.973Z,-0.60
2023-05-08T00:15:56.121Z,-0.70
2023-05-08T00:18:23.349Z,-0.70
2023-05-08T00:20:50.768Z,-0.70
2023-05-08T00:23:17.973Z,-0.70
2023-05-08T00:25:45.073Z,-0.80
2023-05-08T00:28:12.524Z,-0.80
2023-05-08T00:30:39.766Z,-0.80
2023-05-08T00:33:06.957Z,-0.80
2023-05-08T00:35:34.247Z,-0.80
2023-05-08T00:38:01.764Z,-0.80
2023-05-08T00:40:28.942Z,-0.90
2023-05-08T00:42:56.228Z,-0.90
2023-05-08T00:45:23.485Z,-0.90
2023-05-08T00:47:51.350Z,-0.90
2023-05-08T00:50:19.127Z,-0.90
2023-05-08T00:52:46.955Z,-0.90
2023-05-08T00:55:14.326Z,-0.90
2023-05-08T00:57:41.739Z,-1.00
2023-05-08T01:00:10.231Z,-1.00
2023-05-08T01:02:37.805Z,-1.00
2023-05-08T01:05:06.046Z,-1.00
2023-05-08T01:07:33.826Z,-1.00
2023-05-08T01:10:01.118Z,-1.10
2023-05-08T01:12:51.969Z,-1.10
2023-05-08T01:15:29.821Z,-1.10
2023-05-08T01:18:01.683Z,-1.20
2023-05-08T01:21:06.271Z,-1.20
2023-05-08T01:23:54.592Z,-1.20
2023-05-08T01:26:35.713Z,-1.20
2023-05-08T01:29:44.184Z,-1.30
2023-05-08T01:32:21.909Z,-1.30
2023-05-08T01:35:28.762Z,-1.40
2023-05-08T01:38:07.910Z,-1.40
2023-05-08T01:40:42.510Z,-1.40
2023-05-08T01:43:35.823Z,-1.50
2023-05-08T01:46:10.197Z,-1.50
2023-05-08T01:49:02.838Z,-1.50
2023-05-08T01:51:42.244Z,-1.50
2023-05-08T01:54:15.059Z,-1.60
2023-05-08T01:56:45.017Z,-1.60
2023-05-08T01:59:16.424Z,-1.60
2023-05-08T02:01:46.595Z,-1.60
2023-05-08T02:04:16.122Z,-1.70
2023-05-08T02:06:43.930Z,-1.70
2023-05-08T02:09:12.169Z,-1.70
2023-05-08T02:11:41.668Z,-1.70
2023-05-08T02:14:09.847Z,-1.70
2023-05-08T02:16:38.091Z,-1.70
2023-05-08T02:19:08.263Z,-1.70
2023-05-08T02:21:37.339Z,-1.70
2023-05-08T02:24:06.102Z,-1.70
2023-05-08T02:26:35.977Z,-1.70
2023-05-08T02:29:03.970Z,-1.70
2023-05-08T02:31:31.933Z,-1.70
2023-05-08T02:34:00.960Z,-1.70
2023-05-08T02:36:29.385Z,-1.70
2023-05-08T02:38:58.901Z,-1.70
2023-05-08T02:41:31.843Z,-1.60
2023-05-08T02:43:59.683Z,-1.60
2023-05-08T02:46:49.818Z,-1.70
2023-05-08T02:49:51.041Z,-1.70
2023-05-08T02:52:38.523Z,-1.60
2023-05-08T02:55:31.910Z,-1.60
2023-05-08T02:58:20.699Z,-1.60
2023-05-08T03:01:14.201Z,-1.60
2023-05-08T03:03:44.946Z,-1.60
2023-05-08T03:06:14.868Z,-1.60
2023-05-08T03:08:43.862Z,-1.50
2023-05-08T03:11:16.470Z,-1.50
2023-05-08T03:13:47.334Z,-1.50
2023-05-08T03:16:20.963Z,-1.50
2023-05-08T03:18:53.745Z,-1.40
2023-05-08T03:21:24.590Z,-1.40
2023-05-08T03:23:53.752Z,-1.40
2023-05-08T03:26:22.454Z,-1.40
2023-05-08T03:28:50.816Z,-1.30
2023-05-08T03:31:22.582Z,-1.30
2023-05-08T03:33:53.623Z,-1.20
2023-05-08T03:36:22.576Z,-1.20
2023-05-08T03:38:50.031Z,-1.10
2023-05-08T03:41:17.468Z,-1.10
2023-05-08T03:43:45.794Z,-1.00
2023-05-08T03:46:13.699Z,-1.00
2023-05-08T03:48:42.519Z,-0.90
2023-05-08T03:51:10.670Z,-0.80
2023-05-08T03:53:37.840Z,-0.80
2023-05-08T03:56:05.308Z,-0.70
2023-05-08T03:58:41.835Z,-0.60
2023-05-08T04:01:15.555Z,-0.60
2023-05-08T04:04:03.639Z,-0.50
2023-05-08T04:06:55.431Z,-0.40
2023-05-08T04:10:07.771Z,-0.40
2023-05-08T04:13:02.410Z,-0.20
2023-05-08T04:15:31.764Z,-0.10
2023-05-08T04:18:08.878Z,0.00
2023-05-08T04:20:39.139Z,0.10
2023-05-08T04:23:07.302Z,0.20
2023-05-08T04:25:37.907Z,0.30
2023-05-08T04:28:05.754Z,0.40
2023-05-08T04:30:33.492Z,0.60
2023-05-08T04:33:04.563Z,0.60
2023-05-08T04:35:33.604Z,0.80
2023-05-08T04:38:01.040Z,0.90
2023-05-08T04:40:28.268Z,1.10
2023-05-08T04:42:56.112Z,1.20
2023-05-08T04:45:23.474Z,1.30
2023-05-08T04:47:50.793Z,1.50
2023-05-08T04:50:18.017Z,1.60
2023-05-08T04:52:45.255Z,1.80
2023-05-08T04:55:12.712Z,1.90
2023-05-08T04:57:40.238Z,2.10
2023-05-08T05:00:08.214Z,2.30
2023-05-08T05:02:35.436Z,2.40
2023-05-08T05:05:02.768Z,2.50
2023-05-08T05:07:29.997Z,2.70
2023-05-08T05:09:57.215Z,2.80
2023-05-08T05:12:24.450Z,2.90
2023-05-08T05:14:51.583Z,3.00
2023-05-08T05:17:18.748Z,3.20
2023-05-08T05:19:46.033Z,3.30
2023-05-08T05:22:13.257Z,3.40
2023-05-08T05:24:41.143Z,3.60
2023-05-08T05:27:08.662Z,3.70
2023-05-08T05:29:35.999Z,3.90
2023-05-08T05:32:03.474Z,4.00
2023-05-08T05:34:30.751Z,4.20
2023-05-08T05:36:57.866Z,4.40
2023-05-08T05:39:25.087Z,4.50
2023-05-08T05:41:52.353Z,4.70
2023-05-08T05:44:19.517Z,4.80
2023-05-08T05:46:46.898Z,5.00
2023-05-08T05:49:14.200Z,5.20
2023-05-08T05:51:41.395Z,5.40
2023-05-08T05:54:08.566Z,5.50
2023-05-08T05:56:35.856Z,5.70
2023-05-08T05:59:03.117Z,5.90
2023-05-08T06:01:30.339Z,6.10
2023-05-08T06:03:57.716Z,6.30
2023-05-08T06:06:25.235Z,6.40
2023-05-08T06:08:52.511Z,6.60
2023-05-08T06:11:19.732Z,6.70
2023-05-08T06:13:49.108Z,6.90
2023-05-08T06:16:17.676Z,7.10
2023-05-08T06:18:44.814Z,7.30
2023-05-08T06:21:12.062Z,7.50
2023-05-08T06:23:39.233Z,7.70
2023-05-08T06:26:06.407Z,7.90
2023-05-08T06:28:33.960Z,8.10
2023-05-08T06:31:01.230Z,8.30
2023-05-08T06:33:28.510Z,8.40
2023-05-08T06:35:56.030Z,8.60
2023-05-08T06:38:23.202Z,8.70
2023-05-08T06:40:51.061Z,8.80
2023-05-08T06:43:18.442Z,8.90
2023-05-08T06:45:45.971Z,9.10
2023-05-08T06:48:13.365Z,9.20
2023-05-08T06:50:41.050Z,9.30
2023-05-08T06:53:08.737Z,9.40
2023-05-08T06:55:35.992Z,9.50
2023-05-08T06:58:03.416Z,9.60
2023-05-08T07:00:30.678Z,9.80
2023-05-08T07:02:57.875Z,9.90
2023-05-08T07:05:25.268Z,10.00
2023-05-08T07:07:54.363Z,10.20
2023-05-08T07:10:24.832Z,10.20
2023-05-08T07:12:52.491Z,10.40
2023-05-08T07:15:26.029Z,10.60
2023-05-08T07:17:54.473Z,10.80
2023-05-08T07:20:22.029Z,10.90
2023-05-08T07:22:49.327Z,11.00
2023-05-08T07:25:17.303Z,11.20
2023-05-08T07:27:44.481Z,11.30
2023-05-08T07:30:11.971Z,11.30
2023-05-08T07:32:39.676Z,11.50
2023-05-08T07:35:11.002Z,11.60
2023-05-08T07:37:41.848Z,11.80
2023-05-08T07:40:09.340Z,11.90
2023-05-08T07:42:41.258Z,12.10
2023-05-08T07:45:13.159Z,12.20
2023-05-08T07:47:53.226Z,12.30
2023-05-08T07:50:21.082Z,12.50
2023-05-08T07:52:50.119Z,12.60
2023-05-08T07:55:18.755Z,12.60
2023-05-08T07:57:46.595Z,12.60
2023-05-08T08:00:15.333Z,12.60
2023-05-08T08:02:44.671Z,12.70
2023-05-08T08:05:12.976Z,12.80
2023-05-08T08:07:40.444Z,12.90
2023-05-08T08:10:08.764Z,12.90
2023-05-08T08:12:36.434Z,12.90
2023-05-08T08:15:04.088Z,13.10
2023-05-08T08:17:31.303Z,13.10
2023-05-08T08:19:59.251Z,13.20
2023-05-08T08:22:26.581Z,13.20
2023-05-08T08:24:56.175Z,13.30
2023-05-08T08:27:23.958Z,13.50
2023-05-08T08:29:58.505Z,13.50
2023-05-08T08:32:28.692Z,13.50
2023-05-08T08:34:56.678Z,13.40
2023-05-08T08:37:24.486Z,13.40
2023-05-08T08:39:51.765Z,13.50
2023-05-08T08:42:19.009Z,13.50
2023-05-08T08:44:46.302Z,13.60
2023-05-08T08:47:16.868Z,13.70
2023-05-08T08:49:47.685Z,13.70
2023-05-08T08:52:31.035Z,13.60
2023-05-08T08:55:02.576Z,13.60
2023-05-08T08:57:34.376Z,13.60
2023-05-08T09:00:05.750Z,13.80
2023-05-08T09:02:33.148Z,13.80
2023-05-08T09:05:01.163Z,13.90
2023-05-08T09:07:30.328Z,14.00
2023-05-08T09:09:57.928Z,14.00
2023-05-08T09:12:25.300Z,14.00
2023-05-08T09:14:52.714Z,14.20
2023-05-08T09:17:19.988Z,14.30
2023-05-08T09:19:49.688Z,14.50
2023-05-08T09:22:18.207Z,14.60
2023-05-08T09:24:59.612Z,14.60
2023-05-08T09:27:28.955Z,14.80
2023-05-08T09:30:04.634Z,15.00
2023-05-08T09:32:33.225Z,15.00
2023-05-08T09:35:02.093Z,15.00
2023-05-08T09:37:29.763Z,15.00
2023-05-08T09:40:21.701Z,15.10
2023-05-08T09:42:51.171Z,15.20
2023-05-08T09:45:32.744Z,15.20
2023-05-08T09:48:00.168Z,15.30
2023-05-08T09:50:28.008Z,15.40
2023-05-08T09:52:55.535Z,15.40
2023-05-08T09:55:22.854Z,15.40
2023-05-08T09:58:00.331Z,15.60
2023-05-08T10:00:29.574Z,15.60
2023-05-08T10:03:04.335Z,15.60
2023-05-08T10:05:34.826Z,15.70
2023-05-08T10:08:22.558Z,15.80
2023-05-08T10:10:50.039Z,15.90
2023-05-08T10:13:17.398Z,16.00
2023-05-08T10:15:45.882Z,16.00
2023-05-08T10:18:16.202Z,16.00
2023-05-08T10:20:45.967Z,16.20
2023-05-08T10:23:17.835Z,16.00
2023-05-08T10:25:54.738Z,15.80
2023-05-08T10:28:42.999Z,15.70
2023-05-08T10:31:14.660Z,15.70
2023-05-08T10:33:46.853Z,15.90
2023-05-08T10:36:15.186Z,16.20
2023-05-08T10:38:43.543Z,16.40
2023-05-08T10:41:11.697Z,16.60
2023-05-08T10:43:42.794Z,16.80
2023-05-08T10:46:26.158Z,17.10
2023-05-08T10:49:25.939Z,17.50
2023-05-08T10:52:28.885Z,17.80
2023-05-08T10:54:59.341Z,17.90
2023-05-08T10:57:27.001Z,17.70
2023-05-08T10:59:54.309Z,17.60
2023-05-08T11:02:33.095Z,17.60
2023-05-08T11:05:20.669Z,17.80
2023-05-08T11:07:59.008Z,17.90
2023-05-08T11:10:33.198Z,18.00
2023-05-08T11:13:01.472Z,17.90
2023-05-08T11:15:42.149Z,17.90
2023-05-08T11:18:11.652Z,18.00
2023-05-08T11:20:54.804Z,18.20
2023-05-08T11:23:36.084Z,18.40
2023-05-08T11:26:14.505Z,18.60
2023-05-08T11:28:57.191Z,18.60
2023-05-08T11:31:24.885Z,18.80
2023-05-08T11:33:52.110Z,18.80
2023-05-08T11:36:22.849Z,18.80
2023-05-08T11:39:12.976Z,18.80
2023-05-08T11:41:40.254Z,18.80
2023-05-08T11:44:20.197Z,18.70
2023-05-08T11:46:56.387Z,18.70
2023-05-08T11:49:28.992Z,18.50
2023-05-08T11:51:59.089Z,18.40
2023-05-08T11:54:30.662Z,18.50
2023-05-08T11:56:59.809Z,18.40
2023-05-08T11:59:27.278Z,18.50
2023-05-08T12:04:24.846Z,18.70
2023-05-08T12:06:58.991Z,18.60
2023-05-08T12:09:26.289Z,18.70
2023-05-08T12:11:58.194Z,18.70
2023-05-08T12:14:25.613Z,18.70
2023-05-08T12:16:52.859Z,18.60
2023-05-08T12:19:20.075Z,18.50
2023-05-08T12:21:51.679Z,18.60
2023-05-08T12:24:25.668Z,18.70
2023-05-08T12:26:56.701Z,19.00
2023-05-08T12:29:26.216Z,19.40
2023-05-08T12:31:53.761Z,19.50
2023-05-08T12:34:21.894Z,19.40
2023-05-08T12:36:49.214Z,19.30
2023-05-08T12:39:18.170Z,19.20
2023-05-08T12:41:49.367Z,19.10
2023-05-08T12:44:20.968Z,19.00
2023-05-08T12:46:51.402Z,18.90
2023-05-08T12:49:31.486Z,18.80
2023-05-08T12:52:18.320Z,18.90
2023-05-08T12:54:49.561Z,19.20
2023-05-08T12:57:18.667Z,19.50
2023-05-08T12:59:46.599Z,20.00
2023-05-08T13:02:25.906Z,20.60
2023-05-08T13:04:56.661Z,21.10
2023-05-08T13:07:24.411Z,21.00
2023-05-08T13:10:05.044Z,20.60
2023-05-08T13:12:32.133Z,20.70
2023-05-08T13:14:59.345Z,20.90
2023-05-08T13:17:26.595Z,21.20
2023-05-08T13:19:53.755Z,21.80
2023-05-08T13:22:23.277Z,22.10
2023-05-08T13:24:50.456Z,22.50
2023-05-08T13:27:17.682Z,22.70
2023-05-08T13:29:44.925Z,22.80
2023-05-08T13:32:12.270Z,22.70
2023-05-08T13:34:47.304Z,22.50
2023-05-08T13:37:17.729Z,22.40
2023-05-08T13:39:44.947Z,22.50
2023-05-08T13:42:12.148Z,22.80
2023-05-08T13:44:39.636Z,22.90
2023-05-08T13:47:06.778Z,23.10
2023-05-08T13:49:33.982Z,23.50
2023-05-08T13:52:01.401Z,23.80
2023-05-08T13:54:28.740Z,24.10
2023-05-08T13:56:56.106Z,24.30
2023-05-08T13:59:23.514Z,24.00
2023-05-08T14:01:50.782Z,24.10
2023-05-08T14:04:19.377Z,24.00
2023-05-08T14:06:46.856Z,24.00
2023-05-08T14:09:14.767Z,24.10
2023-05-08T14:11:41.932Z,24.20
2023-05-08T14:14:09.346Z,24.10
2023-05-08T14:16:36.552Z,24.00
2023-05-08T14:19:03.737Z,24.00
2023-05-08T14:21:31.745Z,23.90
2023-05-08T14:23:58.950Z,24.10
2023-05-08T14:26:26.935Z,24.20
2023-05-08T14:28:54.189Z,24.20
2023-05-08T14:31:21.316Z,24.30
2023-05-08T14:33:48.574Z,24.50
2023-05-08T14:36:15.922Z,24.50
2023-05-08T14:38:43.089Z,24.60
2023-05-08T14:41:10.282Z,24.60
2023-05-08T14:43:37.581Z,24.80
2023-05-08T14:46:04.942Z,24.80
2023-05-08T14:48:32.269Z,24.90
2023-05-08T14:50:59.566Z,24.90
2023-05-08T14:53:26.971Z,25.00
2023-05-08T14:55:54.711Z,25.10
2023-05-08T14:58:22.476Z,25.00
2023-05-08T15:00:49.606Z,24.90
2023-05-08T15:03:16.965Z,24.70
2023-05-08T15:05:44.429Z,24.60
2023-05-08T15:08:11.590Z,24.40
2023-05-08T15:10:38.776Z,24.30
2023-05-08T15:13:06.048Z,24.30
2023-05-08T15:15:33.384Z,24.40
2023-05-08T15:18:00.549Z,24.40
2023-05-08T15:20:27.830Z,24.40
2023-05-08T15:22:56.604Z,24.60
2023-05-08T15:25:25.858Z,24.80
2023-05-08T15:27:53.158Z,24.90
2023-05-08T15:30:21.198Z,25.10
2023-05-08T15:32:48.949Z,25.30
2023-05-08T15:35:16.467Z,25.10
2023-05-08T15:37:43.786Z,25.10
2023-05-08T15:40:11.577Z,25.20
2023-05-08T15:42:38.951Z,25.30
2023-05-08T15:45:06.640Z,25.30
2023-05-08T15:47:33.935Z,25.40
2023-05-08T15:50:01.301Z,25.60
2023-05-08T15:52:28.538Z,25.80
2023-05-08T15:54:55.757Z,25.70
2023-05-08T15:57:23.024Z,25.60
2023-05-08T15:59:50.160Z,25.60
2023-05-08T16:02:17.476Z,25.60
2023-05-08T16:04:44.798Z,25.50
2023-05-08T16:07:12.050Z,25.50
2023-05-08T16:09:39.267Z,25.40
2023-05-08T16:12:07.182Z,25.20
2023-05-08T16:14:35.728Z,25.10
2023-05-08T16:17:03.634Z,24.90
2023-05-08T16:19:30.952Z,24.90
2023-05-08T16:21:58.326Z,24.90
2023-05-08T16:24:25.653Z,24.90
2023-05-08T16:26:52.810Z,24.90
2023-05-08T16:29:20.026Z,25.00
2023-05-08T16:31:47.213Z,25.00
2023-05-08T16:34:14.434Z,24.80
2023-05-08T16:36:41.664Z,24.60
2023-05-08T16:39:08.832Z,24.50
2023-05-08T16:41:36.027Z,24.40
2023-05-08T16:44:03.175Z,24.20
2023-05-08T16:46:30.925Z,24.20
2023-05-08T16:48:58.311Z,24.10
2023-05-08T16:51:25.510Z,24.20
2023-05-08T16:53:52.694Z,24.20
2023-05-08T16:56:20.918Z,24.10
2023-05-08T16:58:48.093Z,24.00
2023-05-08T17:01:15.348Z,23.90
2023-05-08T17:03:42.623Z,23.70
2023-05-08T17:06:10.465Z,23.50
2023-05-08T17:08:37.799Z,23.10
2023-05-08T17:11:05.080Z,22.60
2023-05-08T17:13:32.421Z,22.00
2023-05-08T17:15:59.755Z,21.50
2023-05-08T17:18:26.948Z,21.20
2023-05-08T17:20:54.259Z,20.90
2023-05-08T17:23:21.450Z,20.60
2023-05-08T17:25:56.227Z,20.20
2023-05-08T17:28:23.444Z,19.70
2023-05-08T17:30:51.160Z,19.20
2023-05-08T17:33:18.823Z,18.80
2023-05-08T17:35:45.969Z,18.30
2023-05-08T17:38:13.383Z,17.90
2023-05-08T17:40:40.552Z,17.50
2023-05-08T17:43:11.346Z,17.10
2023-05-08T17:45:39.363Z,16.60
2023-05-08T17:48:06.680Z,16.20
2023-05-08T17:50:34.685Z,15.80
2023-05-08T17:53:01.995Z,15.50
2023-05-08T17:55:31.564Z,15.10
2023-05-08T17:57:58.833Z,14.80
2023-05-08T18:00:26.224Z,14.50
2023-05-08T18:02:53.538Z,14.30
2023-05-08T18:05:21.073Z,14.00
2023-05-08T18:07:48.297Z,13.70
2023-05-08T18:10:15.589Z,13.40
2023-05-08T18:12:43.025Z,13.20
2023-05-08T18:15:10.819Z,12.90
2023-05-08T18:17:38.055Z,12.60
2023-05-08T18:20:08.080Z,12.40
2023-05-08T18:22:35.753Z,12.20
2023-05-08T18:25:03.612Z,11.90
2023-05-08T18:27:33.738Z,11.70
2023-05-08T18:30:00.993Z,11.50
2023-05-08T18:32:29.307Z,11.30
2023-05-08T18:34:57.502Z,11.10
2023-05-08T18:37:24.925Z,10.80
2023-05-08T18:39:52.106Z,10.60
2023-05-08T18:42:19.319Z,10.50
2023-05-08T18:44:46.770Z,10.30
2023-05-08T18:47:14.072Z,10.10
2023-05-08T18:49:41.536Z,9.90
2023-05-08T18:52:08.739Z,9.80
2023-05-08T18:54:36.084Z,9.60
2023-05-08T18:57:03.314Z,9.50
2023-05-08T18:59:30.935Z,9.40
2023-05-08T19:01:59.409Z,9.20
2023-05-08T19:04:26.624Z,9.10
2023-05-08T19:06:54.348Z,9.00
2023-05-08T19:09:21.572Z,8.80
2023-05-08T19:11:48.708Z,8.70
2023-05-08T19:14:16.093Z,8.50
2023-05-08T19:16:43.341Z,8.40
2023-05-08T19:19:10.628Z,8.30
2023-05-08T19:21:38.041Z,8.20
2023-05-08T19:24:05.556Z,8.00
2023-05-08T19:26:32.945Z,7.90
2023-05-08T19:29:00.199Z,7.80
2023-05-08T19:31:27.507Z,7.70
2023-05-08T19:33:54.972Z,7.60
2023-05-08T19:36:22.283Z,7.50
2023-05-08T19:38:49.733Z,7.40
2023-05-08T19:41:17.979Z,7.30
2023-05-08T19:43:45.251Z,7.20
2023-05-08T19:46:12.468Z,7.10
2023-05-08T19:48:40.023Z,7.00
2023-05-08T19:51:08.568Z,6.90
2023-05-08T19:53:36.034Z,6.80
2023-05-08T19:56:03.291Z,6.60
2023-05-08T19:58:30.903Z,6.50
2023-05-08T20:00:58.430Z,6.40
2023-05-08T20:03:26.210Z,6.30
2023-05-08T20:05:53.681Z,6.20
2023-05-08T20:08:21.041Z,6.10
2023-05-08T20:10:49.258Z,6.00
2023-05-08T20:13:17.653Z,5.90
2023-05-08T20:15:44.990Z,5.80
2023-05-08T20:18:12.236Z,5.60
2023-05-08T20:20:39.463Z,5.60
2023-05-08T20:23:06.667Z,5.50
2023-05-08T20:25:33.758Z,5.50
2023-05-08T20:28:01.054Z,5.50
2023-05-08T20:30:28.168Z,5.50
2023-05-08T20:32:55.478Z,5.40
2023-05-08T20:35:22.759Z,5.40
2023-05-08T20:37:49.909Z,5.30
2023-05-08T20:40:17.201Z,5.30
2023-05-08T20:42:44.531Z,5.20
2023-05-08T20:45:11.989Z,5.20
2023-05-08T20:47:39.444Z,5.10
2023-05-08T20:50:07.543Z,5.10
2023-05-08T20:52:36.685Z,5.10
2023-05-08T20:55:05.371Z,5.00
2023-05-08T20:57:32.618Z,5.00
2023-05-08T20:59:59.855Z,4.90
2023-05-08T21:02:27.002Z,4.80
2023-05-08T21:04:54.507Z,4.70
2023-05-08T21:07:21.894Z,4.70
2023-05-08T21:09:48.969Z,4.60
2023-05-08T21:12:16.103Z,4.60
2023-05-08T21:14:44.270Z,4.50
2023-05-08T21:17:11.504Z,4.50
2023-05-08T21:19:38.625Z,4.40
2023-05-08T21:22:07.685Z,4.30
2023-05-08T21:24:35.129Z,4.30
2023-05-08T21:27:02.667Z,4.30
2023-05-08T21:29:29.737Z,4.20
2023-05-08T21:31:56.837Z,4.20
2023-05-08T21:34:24.026Z,4.10
2023-05-08T21:36:51.183Z,4.00
2023-05-08T21:39:18.361Z,4.00
2023-05-08T21:41:46.294Z,3.90
2023-05-08T21:44:13.361Z,3.90
2023-05-08T21:46:40.510Z,3.80
2023-05-08T21:49:07.929Z,3.80
2023-05-08T21:51:35.642Z,3.80
2023-05-08T21:54:02.716Z,3.70
2023-05-08T21:56:29.924Z,3.70
2023-05-08T21:58:57.054Z,3.70
2023-05-08T22:01:24.368Z,3.70
2023-05-08T22:03:51.704Z,3.60
2023-05-08T22:06:18.911Z,3.50
2023-05-08T22:08:46.248Z,3.50
2023-05-08T22:11:13.336Z,3.50
2023-05-08T22:13:40.457Z,3.40
2023-05-08T22:16:08.231Z,3.40
2023-05-08T22:18:35.329Z,3.30
2023-05-08T22:21:02.414Z,3.30
2023-05-08T22:23:29.534Z,3.20
2023-05-08T22:25:56.638Z,3.20
2023-05-08T22:28:23.743Z,3.10
2023-05-08T22:30:50.867Z,3.10
2023-05-08T22:33:18.010Z,3.00
2023-05-08T22:35:45.012Z,3.00
2023-05-08T22:38:12.073Z,2.90
2023-05-08T22:40:39.307Z,2.90
2023-05-08T22:43:06.767Z,2.80
2023-05-08T22:45:34.004Z,2.80
2023-05-08T22:48:01.299Z,2.80
2023-05-08T22:50:28.581Z,2.70
2023-05-08T22:52:56.216Z,2.70
2023-05-08T22:55:23.306Z,2.60
2023-05-08T22:57:50.630Z,2.60
2023-05-08T23:00:17.840Z,2.60
2023-05-08T23:02:45.370Z,2.50
2023-05-08T23:05:13.233Z,2.50
2023-05-08T23:07:40.930Z,2.50
2023-05-08T23:10:08.466Z,2.40
2023-05-08T23:12:35.720Z,2.40
2023-05-08T23:15:03.196Z,2.40
2023-05-08T23:17:30.338Z,2.40
2023-05-08T23:19:57.526Z,2.40
2023-05-08T23:22:24.790Z,2.30
2023-05-08T23:24:52.067Z,2.30
2023-05-08T23:27:19.273Z,2.20
2023-05-08T23:29:46.503Z,2.10
2023-05-08T23:32:15.663Z,2.10
2023-05-08T23:34:43.651Z,2.00
2023-05-08T23:37:10.849Z,2.00
2023-05-08T23:39:41.602Z,1.90
2023-05-08T23:42:09.524Z,1.80
2023-05-08T23:44:36.791Z,1.80
2023-05-08T23:47:04.115Z,1.80
2023-05-08T23:49:31.228Z,1.70
2023-05-08T23:51:58.548Z,1.70
2023-05-08T23:54:25.910Z,1.70
2023-05-08T23:56:53.110Z,1.70
2023-05-08T23:59:20.396Z,1.60
